sensor_id;sensor_type;location;lat;lon;timestamp;P1;durP1;ratioP1;P2;durP2;ratioP2
58460;SDS011;45558;37.752;-97.822;2022-10-26T00:00:46;13.30;;;5.88;;
58460;SDS011;45558;37.752;-97.822;2022-10-26T00:03:11;9.45;;;1.38;;
58460;SDS011;45558;37.752;-97.822;2022-10-26T00:05:37;12.10;;;4.43;;
58460;SDS011;45558;37.752;-97.822;2022-10-26T00:08:03;6.93;;;1.92;;
58460;SDS011;45558;37.752;-97.822;2022-10-26T00:10:29;5.40;;;2.47;;
58460;SDS011;45558;37.752;-97.822;2022-10-26T00:12:55;11.60;;;3.47;;
58460;SDS011;45558;37.752;-97.822;2022-10-26T00:15:20;10.25;;;4.20;;
58460;SDS011;45558;37.752;-97.822;2022-10-26T00:17:46;5.95;;;1.83;;
58460;SDS011;45558;37.752;-97.822;2022-10-26T00:20:12;4.82;;;1.17;;
58460;SDS011;45558;37.752;-97.822;2022-10-26T00:22:38;7.55;;;1.65;;
58460;SDS011;45558;37.752;-97.822;2022-10-26T00:25:04;5.95;;;2.28;;
58460;SDS011;45558;37.752;-97.822;2022-10-26T00:27:30;3.40;;;0.75;;
58460;SDS011;45558;37.752;-97.822;2022-10-26T00:29:58;9.45;;;2.80;;
58460;SDS011;45558;37.752;-97.822;2022-10-26T00:32:24;9.50;;;2.53;;
58460;SDS011;45558;37.752;-97.822;2022-10-26T00:34:50;7.22;;;2.30;;
58460;SDS011;45558;37.752;-97.822;2022-10-26T00:37:15;8.88;;;2.15;;
58460;SDS011;45558;37.752;-97.822;2022-10-26T00:39:40;6.28;;;0.90;;
58460;SDS011;45558;37.752;-97.822;2022-10-26T00:42:08;7.93;;;1.67;;
58460;SDS011;45558;37.752;-97.822;2022-10-26T00:47:12;7.25;;;1.02;;
58460;SDS011;45558;37.752;-97.822;2022-10-26T00:49:44;9.02;;;2.15;;
58460;SDS011;45558;37.752;-97.822;2022-10-26T00:52:12;12.45;;;2.38;;
58460;SDS011;45558;37.752;-97.822;2022-10-26T00:54:38;13.82;;;2.88;;
58460;SDS011;45558;37.752;-97.822;2022-10-26T00:57:03;14.48;;;4.63;;
58460;SDS011;45558;37.752;-97.822;2022-10-26T00:59:29;17.40;;;1.92;;
58460;SDS011;45558;37.752;-97.822;2022-10-26T01:01:54;10.20;;;2.15;;
58460;SDS011;45558;37.752;-97.822;2022-10-26T01:04:20;12.13;;;3.17;;
58460;SDS011;45558;37.752;-97.822;2022-10-26T01:06:45;13.57;;;2.35;;
58460;SDS011;45558;37.752;-97.822;2022-10-26T01:09:11;13.38;;;2.58;;
58460;SDS011;45558;37.752;-97.822;2022-10-26T01:11:37;17.58;;;2.65;;
58460;SDS011;45558;37.752;-97.822;2022-10-26T01:14:03;20.13;;;4.88;;
58460;SDS011;45558;37.752;-97.822;2022-10-26T01:22:58;18.17;;;2.35;;
58460;SDS011;45558;37.752;-97.822;2022-10-26T01:25:29;13.75;;;1.85;;
58460;SDS011;45558;37.752;-97.822;2022-10-26T01:28:19;24.00;;;4.78;;
58460;SDS011;45558;37.752;-97.822;2022-10-26T01:31:04;12.85;;;1.52;;
58460;SDS011;45558;37.752;-97.822;2022-10-26T01:41:28;21.80;;;2.10;;
58460;SDS011;45558;37.752;-97.822;2022-10-26T01:44:07;13.25;;;1.95;;
58460;SDS011;45558;37.752;-97.822;2022-10-26T01:46:39;10.82;;;3.38;;
58460;SDS011;45558;37.752;-97.822;2022-10-26T01:49:08;20.88;;;2.10;;
58460;SDS011;45558;37.752;-97.822;2022-10-26T01:51:34;16.33;;;2.38;;
58460;SDS011;45558;37.752;-97.822;2022-10-26T01:54:00;19.83;;;2.90;;
58460;SDS011;45558;37.752;-97.822;2022-10-26T01:56:26;11.48;;;2.78;;
58460;SDS011;45558;37.752;-97.822;2022-10-26T01:59:02;15.73;;;2.08;;
58460;SDS011;45558;37.752;-97.822;2022-10-26T02:12:26;14.15;;;2.00;;
58460;SDS011;45558;37.752;-97.822;2022-10-26T02:15:07;13.95;;;1.65;;
58460;SDS011;45558;37.752;-97.822;2022-10-26T02:20:17;14.68;;;1.80;;
58460;SDS011;45558;37.752;-97.822;2022-10-26T02:22:47;17.95;;;2.00;;
58460;SDS011;45558;37.752;-97.822;2022-10-26T02:25:17;20.80;;;2.67;;
58460;SDS011;45558;37.752;-97.822;2022-10-26T02:27:47;19.85;;;2.20;;
58460;SDS011;45558;37.752;-97.822;2022-10-26T02:30:14;16.63;;;1.80;;
58460;SDS011;45558;37.752;-97.822;2022-10-26T02:32:41;17.40;;;1.90;;
58460;SDS011;45558;37.752;-97.822;2022-10-26T02:35:09;18.02;;;1.73;;
58460;SDS011;45558;37.752;-97.822;2022-10-26T02:37:36;17.23;;;1.98;;
58460;SDS011;45558;37.752;-97.822;2022-10-26T02:40:03;18.58;;;1.98;;
58460;SDS011;45558;37.752;-97.822;2022-10-26T02:42:31;18.92;;;2.25;;
58460;SDS011;45558;37.752;-97.822;2022-10-26T02:44:59;10.93;;;1.77;;
58460;SDS011;45558;37.752;-97.822;2022-10-26T02:47:28;17.17;;;3.03;;
58460;SDS011;45558;37.752;-97.822;2022-10-26T02:49:54;24.45;;;1.75;;
58460;SDS011;45558;37.752;-97.822;2022-10-26T02:55:13;20.15;;;1.70;;
58460;SDS011;45558;37.752;-97.822;2022-10-26T02:57:44;15.00;;;1.77;;
58460;SDS011;45558;37.752;-97.822;2022-10-26T03:00:13;22.58;;;1.90;;
58460;SDS011;45558;37.752;-97.822;2022-10-26T03:02:41;20.55;;;2.20;;
58460;SDS011;45558;37.752;-97.822;2022-10-26T03:07:40;26.95;;;4.13;;
58460;SDS011;45558;37.752;-97.822;2022-10-26T03:10:05;26.63;;;4.10;;
58460;SDS011;45558;37.752;-97.822;2022-10-26T03:12:31;16.65;;;1.73;;
58460;SDS011;45558;37.752;-97.822;2022-10-26T03:14:56;17.77;;;3.35;;
58460;SDS011;45558;37.752;-97.822;2022-10-26T03:17:22;18.50;;;3.60;;
58460;SDS011;45558;37.752;-97.822;2022-10-26T03:19:47;19.27;;;2.20;;
58460;SDS011;45558;37.752;-97.822;2022-10-26T03:22:12;12.13;;;1.85;;
58460;SDS011;45558;37.752;-97.822;2022-10-26T03:24:38;15.63;;;1.85;;
58460;SDS011;45558;37.752;-97.822;2022-10-26T03:27:03;21.55;;;2.58;;
58460;SDS011;45558;37.752;-97.822;2022-10-26T03:29:28;16.52;;;1.77;;
58460;SDS011;45558;37.752;-97.822;2022-10-26T03:31:54;15.20;;;1.73;;
58460;SDS011;45558;37.752;-97.822;2022-10-26T03:34:20;14.98;;;1.58;;
58460;SDS011;45558;37.752;-97.822;2022-10-26T03:36:45;16.95;;;1.75;;
58460;SDS011;45558;37.752;-97.822;2022-10-26T03:39:11;16.30;;;1.92;;
58460;SDS011;45558;37.752;-97.822;2022-10-26T03:41:37;15.23;;;1.77;;
58460;SDS011;45558;37.752;-97.822;2022-10-26T03:44:02;15.60;;;1.55;;
58460;SDS011;45558;37.752;-97.822;2022-10-26T03:46:28;14.00;;;1.50;;
58460;SDS011;45558;37.752;-97.822;2022-10-26T03:48:53;15.10;;;1.75;;
58460;SDS011;45558;37.752;-97.822;2022-10-26T03:51:18;15.57;;;2.10;;
58460;SDS011;45558;37.752;-97.822;2022-10-26T03:53:44;11.60;;;1.10;;
58460;SDS011;45558;37.752;-97.822;2022-10-26T03:56:09;16.50;;;2.80;;
58460;SDS011;45558;37.752;-97.822;2022-10-26T03:58:34;14.68;;;1.85;;
58460;SDS011;45558;37.752;-97.822;2022-10-26T04:01:00;15.63;;;1.73;;
58460;SDS011;45558;37.752;-97.822;2022-10-26T04:03:25;13.25;;;2.30;;
58460;SDS011;45558;37.752;-97.822;2022-10-26T04:05:51;14.48;;;1.55;;
58460;SDS011;45558;37.752;-97.822;2022-10-26T04:08:16;9.50;;;1.02;;
58460;SDS011;45558;37.752;-97.822;2022-10-26T04:10:41;15.02;;;1.45;;
58460;SDS011;45558;37.752;-97.822;2022-10-26T04:13:08;21.20;;;2.85;;
58460;SDS011;45558;37.752;-97.822;2022-10-26T04:15:35;14.82;;;2.50;;
58460;SDS011;45558;37.752;-97.822;2022-10-26T04:18:01;15.75;;;2.58;;
58460;SDS011;45558;37.752;-97.822;2022-10-26T04:20:27;14.55;;;1.55;;
58460;SDS011;45558;37.752;-97.822;2022-10-26T04:23:00;20.33;;;1.83;;
58460;SDS011;45558;37.752;-97.822;2022-10-26T04:25:29;15.73;;;2.42;;
58460;SDS011;45558;37.752;-97.822;2022-10-26T04:27:56;20.67;;;1.77;;
58460;SDS011;45558;37.752;-97.822;2022-10-26T04:30:21;14.05;;;1.65;;
58460;SDS011;45558;37.752;-97.822;2022-10-26T04:32:47;15.48;;;2.00;;
58460;SDS011;45558;37.752;-97.822;2022-10-26T04:35:13;22.27;;;2.33;;
58460;SDS011;45558;37.752;-97.822;2022-10-26T04:37:38;18.73;;;1.83;;
58460;SDS011;45558;37.752;-97.822;2022-10-26T04:40:04;21.88;;;2.20;;
58460;SDS011;45558;37.752;-97.822;2022-10-26T04:42:30;23.35;;;2.95;;
58460;SDS011;45558;37.752;-97.822;2022-10-26T04:44:58;29.27;;;3.90;;
58460;SDS011;45558;37.752;-97.822;2022-10-26T04:47:24;24.95;;;2.70;;
58460;SDS011;45558;37.752;-97.822;2022-10-26T04:49:49;26.75;;;3.47;;
58460;SDS011;45558;37.752;-97.822;2022-10-26T04:52:14;21.95;;;2.22;;
58460;SDS011;45558;37.752;-97.822;2022-10-26T04:54:40;21.85;;;2.40;;
58460;SDS011;45558;37.752;-97.822;2022-10-26T04:57:05;21.48;;;3.33;;
58460;SDS011;45558;37.752;-97.822;2022-10-26T04:59:31;20.42;;;2.20;;
58460;SDS011;45558;37.752;-97.822;2022-10-26T05:01:56;19.02;;;3.90;;
58460;SDS011;45558;37.752;-97.822;2022-10-26T05:04:22;25.20;;;3.33;;
58460;SDS011;45558;37.752;-97.822;2022-10-26T05:06:50;21.25;;;2.92;;
58460;SDS011;45558;37.752;-97.822;2022-10-26T05:09:16;21.65;;;2.35;;
58460;SDS011;45558;37.752;-97.822;2022-10-26T05:11:42;28.23;;;2.40;;
58460;SDS011;45558;37.752;-97.822;2022-10-26T05:14:07;21.27;;;2.35;;
58460;SDS011;45558;37.752;-97.822;2022-10-26T05:16:33;22.73;;;2.75;;
58460;SDS011;45558;37.752;-97.822;2022-10-26T05:18:59;22.60;;;2.88;;
58460;SDS011;45558;37.752;-97.822;2022-10-26T05:21:24;25.90;;;2.83;;
58460;SDS011;45558;37.752;-97.822;2022-10-26T05:23:50;22.67;;;2.97;;
58460;SDS011;45558;37.752;-97.822;2022-10-26T05:26:18;24.10;;;3.03;;
58460;SDS011;45558;37.752;-97.822;2022-10-26T05:28:44;40.10;;;3.72;;
58460;SDS011;45558;37.752;-97.822;2022-10-26T05:31:09;17.33;;;3.08;;
58460;SDS011;45558;37.752;-97.822;2022-10-26T05:33:35;25.65;;;2.58;;
58460;SDS011;45558;37.752;-97.822;2022-10-26T05:36:00;15.57;;;2.47;;
58460;SDS011;45558;37.752;-97.822;2022-10-26T05:38:25;25.17;;;3.53;;
58460;SDS011;45558;37.752;-97.822;2022-10-26T05:40:51;24.42;;;2.88;;
58460;SDS011;45558;37.752;-97.822;2022-10-26T05:43:18;29.13;;;2.40;;
58460;SDS011;45558;37.752;-97.822;2022-10-26T05:45:45;17.67;;;2.42;;
58460;SDS011;45558;37.752;-97.822;2022-10-26T05:48:11;26.33;;;3.10;;
58460;SDS011;45558;37.752;-97.822;2022-10-26T05:50:36;12.98;;;1.65;;
58460;SDS011;45558;37.752;-97.822;2022-10-26T05:53:02;23.00;;;3.05;;
58460;SDS011;45558;37.752;-97.822;2022-10-26T05:55:28;16.38;;;2.33;;
58460;SDS011;45558;37.752;-97.822;2022-10-26T05:57:53;17.25;;;1.52;;
58460;SDS011;45558;37.752;-97.822;2022-10-26T06:00:20;14.05;;;1.63;;
58460;SDS011;45558;37.752;-97.822;2022-10-26T06:05:52;20.17;;;2.53;;
58460;SDS011;45558;37.752;-97.822;2022-10-26T06:08:20;19.92;;;2.20;;
58460;SDS011;45558;37.752;-97.822;2022-10-26T06:10:46;10.07;;;1.35;;
58460;SDS011;45558;37.752;-97.822;2022-10-26T06:13:12;10.50;;;1.48;;
58460;SDS011;45558;37.752;-97.822;2022-10-26T06:27:15;16.95;;;2.05;;
58460;SDS011;45558;37.752;-97.822;2022-10-26T06:32:28;12.38;;;1.77;;
58460;SDS011;45558;37.752;-97.822;2022-10-26T06:35:00;15.48;;;2.22;;
58460;SDS011;45558;37.752;-97.822;2022-10-26T06:37:50;20.55;;;2.28;;
58460;SDS011;45558;37.752;-97.822;2022-10-26T06:40:17;12.95;;;1.73;;
58460;SDS011;45558;37.752;-97.822;2022-10-26T06:42:42;10.38;;;1.50;;
58460;SDS011;45558;37.752;-97.822;2022-10-26T06:45:12;16.73;;;2.03;;
58460;SDS011;45558;37.752;-97.822;2022-10-26T06:50:10;21.08;;;2.95;;
58460;SDS011;45558;37.752;-97.822;2022-10-26T06:53:31;17.63;;;3.38;;
58460;SDS011;45558;37.752;-97.822;2022-10-26T06:55:52;18.33;;;2.00;;
58460;SDS011;45558;37.752;-97.822;2022-10-26T06:58:18;21.23;;;3.42;;
58460;SDS011;45558;37.752;-97.822;2022-10-26T07:00:45;16.80;;;2.50;;
58460;SDS011;45558;37.752;-97.822;2022-10-26T07:05:41;19.20;;;2.67;;
58460;SDS011;45558;37.752;-97.822;2022-10-26T07:08:07;21.73;;;2.25;;
58460;SDS011;45558;37.752;-97.822;2022-10-26T07:10:32;17.27;;;2.92;;
58460;SDS011;45558;37.752;-97.822;2022-10-26T07:13:02;17.85;;;2.58;;
58460;SDS011;45558;37.752;-97.822;2022-10-26T07:15:28;20.85;;;2.42;;
58460;SDS011;45558;37.752;-97.822;2022-10-26T07:17:54;21.85;;;3.13;;
58460;SDS011;45558;37.752;-97.822;2022-10-26T07:20:20;19.77;;;2.72;;
58460;SDS011;45558;37.752;-97.822;2022-10-26T07:22:52;21.90;;;2.58;;
58460;SDS011;45558;37.752;-97.822;2022-10-26T07:25:18;18.38;;;4.25;;
58460;SDS011;45558;37.752;-97.822;2022-10-26T07:27:44;13.85;;;3.00;;
58460;SDS011;45558;37.752;-97.822;2022-10-26T07:30:09;45.92;;;7.00;;
58460;SDS011;45558;37.752;-97.822;2022-10-26T07:32:35;19.63;;;2.90;;
58460;SDS011;45558;37.752;-97.822;2022-10-26T07:35:00;23.10;;;2.92;;
58460;SDS011;45558;37.752;-97.822;2022-10-26T07:37:26;12.52;;;1.50;;
58460;SDS011;45558;37.752;-97.822;2022-10-26T07:39:52;26.92;;;3.05;;
58460;SDS011;45558;37.752;-97.822;2022-10-26T07:42:17;21.27;;;2.78;;
58460;SDS011;45558;37.752;-97.822;2022-10-26T07:44:43;26.70;;;2.47;;
58460;SDS011;45558;37.752;-97.822;2022-10-26T07:47:08;13.88;;;1.95;;
58460;SDS011;45558;37.752;-97.822;2022-10-26T07:49:35;18.88;;;1.60;;
58460;SDS011;45558;37.752;-97.822;2022-10-26T07:52:00;14.75;;;1.48;;
58460;SDS011;45558;37.752;-97.822;2022-10-26T07:54:25;15.52;;;1.60;;
58460;SDS011;45558;37.752;-97.822;2022-10-26T07:56:51;20.40;;;3.67;;
58460;SDS011;45558;37.752;-97.822;2022-10-26T07:59:17;14.05;;;2.28;;
58460;SDS011;45558;37.752;-97.822;2022-10-26T08:01:43;12.48;;;3.20;;
58460;SDS011;45558;37.752;-97.822;2022-10-26T08:04:08;10.18;;;1.70;;
58460;SDS011;45558;37.752;-97.822;2022-10-26T08:06:34;15.35;;;2.33;;
58460;SDS011;45558;37.752;-97.822;2022-10-26T08:08:59;19.55;;;1.65;;
58460;SDS011;45558;37.752;-97.822;2022-10-26T08:11:25;16.80;;;1.83;;
58460;SDS011;45558;37.752;-97.822;2022-10-26T08:13:51;17.52;;;1.95;;
58460;SDS011;45558;37.752;-97.822;2022-10-26T08:16:17;15.60;;;3.25;;
58460;SDS011;45558;37.752;-97.822;2022-10-26T08:18:43;12.27;;;1.60;;
58460;SDS011;45558;37.752;-97.822;2022-10-26T08:21:09;16.08;;;1.88;;
58460;SDS011;45558;37.752;-97.822;2022-10-26T08:23:38;18.25;;;3.92;;
58460;SDS011;45558;37.752;-97.822;2022-10-26T08:26:04;12.73;;;1.83;;
58460;SDS011;45558;37.752;-97.822;2022-10-26T08:28:29;18.48;;;2.70;;
58460;SDS011;45558;37.752;-97.822;2022-10-26T08:30:55;8.40;;;2.33;;
58460;SDS011;45558;37.752;-97.822;2022-10-26T08:33:21;11.05;;;1.17;;
58460;SDS011;45558;37.752;-97.822;2022-10-26T08:35:47;14.18;;;1.55;;
58460;SDS011;45558;37.752;-97.822;2022-10-26T08:38:13;17.52;;;2.25;;
58460;SDS011;45558;37.752;-97.822;2022-10-26T08:40:40;11.05;;;1.38;;
58460;SDS011;45558;37.752;-97.822;2022-10-26T08:43:31;21.10;;;1.98;;
58460;SDS011;45558;37.752;-97.822;2022-10-26T08:48:40;15.57;;;1.92;;
58460;SDS011;45558;37.752;-97.822;2022-10-26T08:51:16;23.92;;;1.73;;
58460;SDS011;45558;37.752;-97.822;2022-10-26T08:56:39;16.08;;;1.75;;
58460;SDS011;45558;37.752;-97.822;2022-10-26T08:59:11;12.95;;;1.80;;
58460;SDS011;45558;37.752;-97.822;2022-10-26T09:01:38;15.40;;;2.22;;
58460;SDS011;45558;37.752;-97.822;2022-10-26T09:04:05;17.77;;;1.92;;
58460;SDS011;45558;37.752;-97.822;2022-10-26T09:09:02;19.52;;;2.20;;
58460;SDS011;45558;37.752;-97.822;2022-10-26T09:11:45;11.50;;;2.03;;
58460;SDS011;45558;37.752;-97.822;2022-10-26T09:24:41;14.50;;;1.60;;
58460;SDS011;45558;37.752;-97.822;2022-10-26T09:29:48;12.48;;;1.55;;
58460;SDS011;45558;37.752;-97.822;2022-10-26T09:32:19;13.88;;;2.10;;
58460;SDS011;45558;37.752;-97.822;2022-10-26T09:34:49;12.82;;;2.08;;
58460;SDS011;45558;37.752;-97.822;2022-10-26T09:37:21;12.80;;;1.92;;
58460;SDS011;45558;37.752;-97.822;2022-10-26T09:42:48;27.10;;;3.95;;
58460;SDS011;45558;37.752;-97.822;2022-10-26T09:47:53;20.95;;;2.85;;
58460;SDS011;45558;37.752;-97.822;2022-10-26T09:50:26;18.77;;;2.30;;
58460;SDS011;45558;37.752;-97.822;2022-10-26T09:52:53;8.75;;;1.40;;
58460;SDS011;45558;37.752;-97.822;2022-10-26T09:55:19;10.75;;;2.13;;
58460;SDS011;45558;37.752;-97.822;2022-10-26T09:57:47;13.57;;;2.75;;
58460;SDS011;45558;37.752;-97.822;2022-10-26T10:00:15;18.73;;;5.95;;
58460;SDS011;45558;37.752;-97.822;2022-10-26T10:02:42;15.93;;;5.53;;
58460;SDS011;45558;37.752;-97.822;2022-10-26T10:05:26;27.70;;;9.93;;
58460;SDS011;45558;37.752;-97.822;2022-10-26T10:07:52;16.95;;;5.80;;
58460;SDS011;45558;37.752;-97.822;2022-10-26T10:10:33;53.00;;;18.38;;
58460;SDS011;45558;37.752;-97.822;2022-10-26T10:12:59;36.85;;;14.25;;
58460;SDS011;45558;37.752;-97.822;2022-10-26T10:15:39;24.30;;;8.02;;
58460;SDS011;45558;37.752;-97.822;2022-10-26T10:18:04;20.10;;;5.43;;
58460;SDS011;45558;37.752;-97.822;2022-10-26T10:20:31;20.65;;;5.82;;
58460;SDS011;45558;37.752;-97.822;2022-10-26T10:22:59;11.80;;;2.85;;
58460;SDS011;45558;37.752;-97.822;2022-10-26T10:25:47;16.42;;;5.93;;
58460;SDS011;45558;37.752;-97.822;2022-10-26T10:28:21;11.93;;;2.45;;
58460;SDS011;45558;37.752;-97.822;2022-10-26T10:30:59;17.35;;;2.25;;
58460;SDS011;45558;37.752;-97.822;2022-10-26T10:33:36;17.63;;;1.85;;
58460;SDS011;45558;37.752;-97.822;2022-10-26T10:36:09;14.25;;;1.98;;
58460;SDS011;45558;37.752;-97.822;2022-10-26T10:38:41;16.83;;;3.13;;
58460;SDS011;45558;37.752;-97.822;2022-10-26T10:43:55;14.10;;;2.17;;
58460;SDS011;45558;37.752;-97.822;2022-10-26T10:46:33;9.63;;;1.23;;
58460;SDS011;45558;37.752;-97.822;2022-10-26T10:49:03;16.02;;;3.22;;
58460;SDS011;45558;37.752;-97.822;2022-10-26T10:51:33;10.65;;;1.73;;
58460;SDS011;45558;37.752;-97.822;2022-10-26T10:54:01;13.68;;;1.60;;
58460;SDS011;45558;37.752;-97.822;2022-10-26T11:02:22;12.23;;;1.73;;
58460;SDS011;45558;37.752;-97.822;2022-10-26T11:07:08;17.45;;;3.00;;
58460;SDS011;45558;37.752;-97.822;2022-10-26T11:09:36;11.40;;;1.60;;
58460;SDS011;45558;37.752;-97.822;2022-10-26T11:15:17;15.18;;;2.63;;
58460;SDS011;45558;37.752;-97.822;2022-10-26T11:17:31;13.55;;;2.50;;
58460;SDS011;45558;37.752;-97.822;2022-10-26T11:20:02;19.50;;;4.13;;
58460;SDS011;45558;37.752;-97.822;2022-10-26T11:22:35;13.88;;;3.47;;
58460;SDS011;45558;37.752;-97.822;2022-10-26T11:25:06;13.85;;;2.50;;
58460;SDS011;45558;37.752;-97.822;2022-10-26T11:30:13;16.02;;;4.38;;
58460;SDS011;45558;37.752;-97.822;2022-10-26T11:32:43;17.30;;;5.68;;
58460;SDS011;45558;37.752;-97.822;2022-10-26T11:45:37;12.10;;;2.40;;
58460;SDS011;45558;37.752;-97.822;2022-10-26T11:48:23;13.40;;;4.15;;
58460;SDS011;45558;37.752;-97.822;2022-10-26T11:50:54;18.33;;;4.60;;
58460;SDS011;45558;37.752;-97.822;2022-10-26T11:53:27;16.58;;;2.97;;
58460;SDS011;45558;37.752;-97.822;2022-10-26T11:55:55;5.28;;;1.10;;
58460;SDS011;45558;37.752;-97.822;2022-10-26T11:58:22;8.02;;;0.70;;
58460;SDS011;45558;37.752;-97.822;2022-10-26T12:00:51;7.75;;;1.05;;
58460;SDS011;45558;37.752;-97.822;2022-10-26T12:03:27;9.50;;;1.00;;
58460;SDS011;45558;37.752;-97.822;2022-10-26T12:05:55;4.63;;;0.90;;
58460;SDS011;45558;37.752;-97.822;2022-10-26T12:08:28;14.70;;;1.48;;
58460;SDS011;45558;37.752;-97.822;2022-10-26T12:13:49;3.50;;;0.90;;
58460;SDS011;45558;37.752;-97.822;2022-10-26T12:16:22;4.97;;;0.70;;
58460;SDS011;45558;37.752;-97.822;2022-10-26T12:18:58;4.88;;;1.38;;
58460;SDS011;45558;37.752;-97.822;2022-10-26T12:21:27;7.93;;;1.10;;
58460;SDS011;45558;37.752;-97.822;2022-10-26T12:24:00;6.40;;;1.17;;
58460;SDS011;45558;37.752;-97.822;2022-10-26T12:29:30;18.17;;;2.95;;
58460;SDS011;45558;37.752;-97.822;2022-10-26T12:32:03;13.18;;;1.40;;
58460;SDS011;45558;37.752;-97.822;2022-10-26T12:37:56;5.65;;;0.93;;
58460;SDS011;45558;37.752;-97.822;2022-10-26T12:42:59;4.05;;;1.45;;
58460;SDS011;45558;37.752;-97.822;2022-10-26T12:45:44;5.32;;;1.20;;
58460;SDS011;45558;37.752;-97.822;2022-10-26T12:48:20;7.30;;;0.90;;
58460;SDS011;45558;37.752;-97.822;2022-10-26T12:50:46;6.18;;;1.10;;
58460;SDS011;45558;37.752;-97.822;2022-10-26T12:53:14;8.57;;;2.08;;
58460;SDS011;45558;37.752;-97.822;2022-10-26T13:03:28;5.60;;;0.80;;
58460;SDS011;45558;37.752;-97.822;2022-10-26T13:09:13;2.80;;;0.90;;
58460;SDS011;45558;37.752;-97.822;2022-10-26T13:11:45;4.97;;;0.80;;
58460;SDS011;45558;37.752;-97.822;2022-10-26T13:14:48;8.48;;;0.98;;
58460;SDS011;45558;37.752;-97.822;2022-10-26T13:17:05;5.95;;;0.65;;
58460;SDS011;45558;37.752;-97.822;2022-10-26T13:19:47;3.28;;;0.73;;
58460;SDS011;45558;37.752;-97.822;2022-10-26T13:22:13;6.03;;;0.70;;
58460;SDS011;45558;37.752;-97.822;2022-10-26T13:24:42;5.47;;;0.82;;
58460;SDS011;45558;37.752;-97.822;2022-10-26T13:30:33;3.55;;;0.98;;
58460;SDS011;45558;37.752;-97.822;2022-10-26T13:32:39;4.95;;;0.75;;
58460;SDS011;45558;37.752;-97.822;2022-10-26T13:35:10;7.35;;;0.60;;
58460;SDS011;45558;37.752;-97.822;2022-10-26T13:37:38;4.43;;;0.68;;
58460;SDS011;45558;37.752;-97.822;2022-10-26T13:40:07;7.60;;;3.50;;
58460;SDS011;45558;37.752;-97.822;2022-10-26T13:42:43;5.93;;;2.85;;
58460;SDS011;45558;37.752;-97.822;2022-10-26T13:45:28;18.13;;;9.18;;
58460;SDS011;45558;37.752;-97.822;2022-10-26T13:48:03;34.42;;;19.70;;
58460;SDS011;45558;37.752;-97.822;2022-10-26T13:50:40;46.45;;;28.42;;
58460;SDS011;45558;37.752;-97.822;2022-10-26T13:53:14;26.45;;;10.10;;
58460;SDS011;45558;37.752;-97.822;2022-10-26T14:03:27;7.70;;;0.73;;
58460;SDS011;45558;37.752;-97.822;2022-10-26T14:05:53;6.22;;;1.60;;
58460;SDS011;45558;37.752;-97.822;2022-10-26T14:08:19;5.15;;;2.55;;
58460;SDS011;45558;37.752;-97.822;2022-10-26T14:11:06;5.35;;;1.88;;
58460;SDS011;45558;37.752;-97.822;2022-10-26T14:13:32;5.82;;;1.27;;
58460;SDS011;45558;37.752;-97.822;2022-10-26T14:15:58;3.05;;;1.02;;
58460;SDS011;45558;37.752;-97.822;2022-10-26T14:25:01;8.73;;;2.72;;
58460;SDS011;45558;37.752;-97.822;2022-10-26T14:27:30;6.60;;;1.05;;
58460;SDS011;45558;37.752;-97.822;2022-10-26T14:29:57;5.10;;;2.75;;
58460;SDS011;45558;37.752;-97.822;2022-10-26T14:34:53;7.50;;;2.85;;
58460;SDS011;45558;37.752;-97.822;2022-10-26T14:37:29;8.05;;;3.85;;
58460;SDS011;45558;37.752;-97.822;2022-10-26T14:40:04;5.45;;;2.65;;
58460;SDS011;45558;37.752;-97.822;2022-10-26T14:42:31;10.73;;;8.13;;
58460;SDS011;45558;37.752;-97.822;2022-10-26T14:44:58;5.40;;;1.50;;
58460;SDS011;45558;37.752;-97.822;2022-10-26T14:47:27;4.47;;;1.95;;
58460;SDS011;45558;37.752;-97.822;2022-10-26T14:49:53;4.68;;;0.80;;
58460;SDS011;45558;37.752;-97.822;2022-10-26T14:52:24;5.22;;;1.00;;
58460;SDS011;45558;37.752;-97.822;2022-10-26T14:54:58;4.90;;;1.95;;
58460;SDS011;45558;37.752;-97.822;2022-10-26T14:57:34;4.43;;;1.38;;
58460;SDS011;45558;37.752;-97.822;2022-10-26T15:00:01;3.25;;;0.50;;
58460;SDS011;45558;37.752;-97.822;2022-10-26T15:02:29;6.85;;;1.65;;
58460;SDS011;45558;37.752;-97.822;2022-10-26T15:04:59;9.68;;;7.20;;
58460;SDS011;45558;37.752;-97.822;2022-10-26T15:07:36;10.30;;;5.10;;
58460;SDS011;45558;37.752;-97.822;2022-10-26T15:10:02;16.48;;;8.07;;
58460;SDS011;45558;37.752;-97.822;2022-10-26T15:14:57;9.75;;;4.10;;
58460;SDS011;45558;37.752;-97.822;2022-10-26T15:17:33;14.02;;;6.22;;
58460;SDS011;45558;37.752;-97.822;2022-10-26T15:20:03;11.70;;;6.43;;
58460;SDS011;45558;37.752;-97.822;2022-10-26T15:22:29;19.77;;;13.40;;
58460;SDS011;45558;37.752;-97.822;2022-10-26T15:24:55;13.55;;;8.20;;
58460;SDS011;45558;37.752;-97.822;2022-10-26T15:27:22;13.10;;;6.18;;
58460;SDS011;45558;37.752;-97.822;2022-10-26T15:30:15;14.63;;;1.80;;
58460;SDS011;45558;37.752;-97.822;2022-10-26T15:32:46;6.00;;;1.60;;
58460;SDS011;45558;37.752;-97.822;2022-10-26T15:35:14;16.58;;;4.00;;
58460;SDS011;45558;37.752;-97.822;2022-10-26T15:37:42;13.48;;;2.42;;
58460;SDS011;45558;37.752;-97.822;2022-10-26T15:40:08;11.13;;;2.35;;
58460;SDS011;45558;37.752;-97.822;2022-10-26T15:42:35;8.63;;;1.67;;
58460;SDS011;45558;37.752;-97.822;2022-10-26T15:45:02;7.47;;;1.30;;
58460;SDS011;45558;37.752;-97.822;2022-10-26T15:47:31;14.63;;;3.72;;
58460;SDS011;45558;37.752;-97.822;2022-10-26T15:49:57;7.88;;;1.48;;
58460;SDS011;45558;37.752;-97.822;2022-10-26T15:52:22;11.30;;;2.63;;
58460;SDS011;45558;37.752;-97.822;2022-10-26T15:54:48;13.80;;;4.60;;
58460;SDS011;45558;37.752;-97.822;2022-10-26T15:57:13;14.63;;;1.90;;
58460;SDS011;45558;37.752;-97.822;2022-10-26T15:59:40;16.58;;;5.65;;
58460;SDS011;45558;37.752;-97.822;2022-10-26T16:02:14;14.18;;;3.15;;
58460;SDS011;45558;37.752;-97.822;2022-10-26T16:04:40;10.27;;;1.77;;
58460;SDS011;45558;37.752;-97.822;2022-10-26T16:07:12;11.75;;;1.63;;
58460;SDS011;45558;37.752;-97.822;2022-10-26T16:09:39;15.65;;;4.68;;
58460;SDS011;45558;37.752;-97.822;2022-10-26T16:12:10;7.75;;;2.10;;
58460;SDS011;45558;37.752;-97.822;2022-10-26T16:14:36;17.95;;;4.82;;
58460;SDS011;45558;37.752;-97.822;2022-10-26T16:17:03;17.65;;;5.30;;
58460;SDS011;45558;37.752;-97.822;2022-10-26T16:19:29;19.23;;;4.50;;
58460;SDS011;45558;37.752;-97.822;2022-10-26T16:21:55;11.35;;;1.35;;
58460;SDS011;45558;37.752;-97.822;2022-10-26T16:24:20;19.13;;;7.82;;
58460;SDS011;45558;37.752;-97.822;2022-10-26T16:26:46;8.70;;;1.23;;
58460;SDS011;45558;37.752;-97.822;2022-10-26T16:29:11;5.97;;;0.85;;
58460;SDS011;45558;37.752;-97.822;2022-10-26T16:31:37;12.80;;;2.95;;
58460;SDS011;45558;37.752;-97.822;2022-10-26T16:34:03;13.55;;;2.22;;
58460;SDS011;45558;37.752;-97.822;2022-10-26T16:36:44;12.05;;;1.42;;
58460;SDS011;45558;37.752;-97.822;2022-10-26T16:39:12;17.40;;;5.75;;
58460;SDS011;45558;37.752;-97.822;2022-10-26T16:41:38;25.08;;;9.05;;
58460;SDS011;45558;37.752;-97.822;2022-10-26T16:44:03;34.33;;;20.33;;
58460;SDS011;45558;37.752;-97.822;2022-10-26T16:46:29;42.90;;;22.83;;
58460;SDS011;45558;37.752;-97.822;2022-10-26T16:48:54;73.78;;;35.35;;
58460;SDS011;45558;37.752;-97.822;2022-10-26T16:51:20;47.20;;;22.58;;
58460;SDS011;45558;37.752;-97.822;2022-10-26T16:53:48;53.10;;;29.08;;
58460;SDS011;45558;37.752;-97.822;2022-10-26T16:56:18;72.32;;;40.40;;